sensor_id;sensor_type;location;lat;lon;timestamp;P1;durP1;ratioP1;P2;durP2;ratioP2
5791;SDS011;2922;53.482;10.006;2023-06-26T00:00:19;6.20;;;3.70;;
5791;SDS011;2922;53.482;10.006;2023-06-26T00:02:44;9.80;;;4.50;;
5791;SDS011;2922;53.482;10.006;2023-06-26T00:05:10;13.77;;;4.50;;
5791;SDS011;2922;53.482;10.006;2023-06-26T00:07:36;8.27;;;4.43;;
5791;SDS011;2922;53.482;10.006;2023-06-26T00:10:04;8.20;;;4.43;;
5791;SDS011;2922;53.482;10.006;2023-06-26T00:12:31;7.70;;;4.90;;
5791;SDS011;2922;53.482;10.006;2023-06-26T00:14:57;6.03;;;3.37;;
5791;SDS011;2922;53.482;10.006;2023-06-26T00:17:23;9.03;;;3.70;;
5791;SDS011;2922;53.482;10.006;2023-06-26T00:19:49;12.67;;;4.47;;
5791;SDS011;2922;53.482;10.006;2023-06-26T00:22:15;7.60;;;4.20;;
5791;SDS011;2922;53.482;10.006;2023-06-26T00:24:40;6.23;;;3.30;;
5791;SDS011;2922;53.482;10.006;2023-06-26T00:27:06;10.10;;;4.23;;
5791;SDS011;2922;53.482;10.006;2023-06-26T00:29:32;9.47;;;4.33;;
5791;SDS011;2922;53.482;10.006;2023-06-26T00:31:58;8.97;;;4.70;;
5791;SDS011;2922;53.482;10.006;2023-06-26T00:34:23;8.00;;;3.70;;
5791;SDS011;2922;53.482;10.006;2023-06-26T00:36:49;8.77;;;4.20;;
5791;SDS011;2922;53.482;10.006;2023-06-26T00:39:14;8.53;;;4.20;;
5791;SDS011;2922;53.482;10.006;2023-06-26T00:41:40;12.13;;;5.30;;
5791;SDS011;2922;53.482;10.006;2023-06-26T00:44:06;8.23;;;3.83;;
5791;SDS011;2922;53.482;10.006;2023-06-26T00:46:32;8.63;;;4.17;;
5791;SDS011;2922;53.482;10.006;2023-06-26T00:48:59;10.20;;;4.60;;
5791;SDS011;2922;53.482;10.006;2023-06-26T00:51:27;11.17;;;4.47;;
5791;SDS011;2922;53.482;10.006;2023-06-26T00:53:55;9.80;;;4.60;;
5791;SDS011;2922;53.482;10.006;2023-06-26T00:56:21;8.50;;;4.27;;
5791;SDS011;2922;53.482;10.006;2023-06-26T00:58:47;6.87;;;4.37;;
5791;SDS011;2922;53.482;10.006;2023-06-26T01:01:12;9.80;;;4.67;;
5791;SDS011;2922;53.482;10.006;2023-06-26T01:03:42;7.07;;;3.70;;
5791;SDS011;2922;53.482;10.006;2023-06-26T01:06:10;10.33;;;4.87;;
5791;SDS011;2922;53.482;10.006;2023-06-26T01:08:38;11.03;;;5.43;;
5791;SDS011;2922;53.482;10.006;2023-06-26T01:11:06;5.40;;;3.40;;
5791;SDS011;2922;53.482;10.006;2023-06-26T01:13:31;7.57;;;4.47;;
5791;SDS011;2922;53.482;10.006;2023-06-26T01:15:58;9.80;;;4.83;;
5791;SDS011;2922;53.482;10.006;2023-06-26T01:18:25;7.80;;;4.37;;
5791;SDS011;2922;53.482;10.006;2023-06-26T01:20:51;12.30;;;4.53;;
5791;SDS011;2922;53.482;10.006;2023-06-26T01:23:22;9.07;;;5.10;;
5791;SDS011;2922;53.482;10.006;2023-06-26T01:28:32;9.07;;;4.40;;
5791;SDS011;2922;53.482;10.006;2023-06-26T01:30:59;13.37;;;5.90;;
5791;SDS011;2922;53.482;10.006;2023-06-26T01:33:25;8.63;;;4.10;;
5791;SDS011;2922;53.482;10.006;2023-06-26T01:35:52;11.50;;;4.83;;
5791;SDS011;2922;53.482;10.006;2023-06-26T01:38:19;9.57;;;5.20;;
5791;SDS011;2922;53.482;10.006;2023-06-26T01:40:46;13.93;;;4.33;;
5791;SDS011;2922;53.482;10.006;2023-06-26T01:45:50;7.20;;;3.90;;
5791;SDS011;2922;53.482;10.006;2023-06-26T01:48:17;15.07;;;4.73;;
5791;SDS011;2922;53.482;10.006;2023-06-26T01:50:48;10.50;;;4.60;;
5791;SDS011;2922;53.482;10.006;2023-06-26T01:53:19;8.67;;;4.07;;
5791;SDS011;2922;53.482;10.006;2023-06-26T01:58:16;9.07;;;5.10;;
5791;SDS011;2922;53.482;10.006;2023-06-26T02:00:45;8.23;;;4.40;;
5791;SDS011;2922;53.482;10.006;2023-06-26T02:03:11;14.83;;;5.33;;
5791;SDS011;2922;53.482;10.006;2023-06-26T02:05:37;9.10;;;4.77;;
5791;SDS011;2922;53.482;10.006;2023-06-26T02:08:02;6.97;;;4.03;;
5791;SDS011;2922;53.482;10.006;2023-06-26T02:10:28;8.33;;;4.63;;
5791;SDS011;2922;53.482;10.006;2023-06-26T02:12:54;9.67;;;5.73;;
5791;SDS011;2922;53.482;10.006;2023-06-26T02:15:20;10.10;;;5.27;;
5791;SDS011;2922;53.482;10.006;2023-06-26T02:17:46;13.03;;;4.20;;
5791;SDS011;2922;53.482;10.006;2023-06-26T02:20:13;11.13;;;5.17;;
5791;SDS011;2922;53.482;10.006;2023-06-26T02:22:40;11.73;;;5.30;;
5791;SDS011;2922;53.482;10.006;2023-06-26T02:25:06;12.00;;;5.00;;
5791;SDS011;2922;53.482;10.006;2023-06-26T02:27:32;10.27;;;4.97;;
5791;SDS011;2922;53.482;10.006;2023-06-26T02:29:57;12.83;;;5.07;;
5791;SDS011;2922;53.482;10.006;2023-06-26T02:32:23;12.03;;;5.80;;
5791;SDS011;2922;53.482;10.006;2023-06-26T02:34:49;11.23;;;4.80;;
5791;SDS011;2922;53.482;10.006;2023-06-26T02:37:16;8.50;;;4.80;;
5791;SDS011;2922;53.482;10.006;2023-06-26T02:39:42;8.03;;;4.60;;
5791;SDS011;2922;53.482;10.006;2023-06-26T02:42:08;7.80;;;4.27;;
5791;SDS011;2922;53.482;10.006;2023-06-26T02:44:33;11.00;;;5.20;;
5791;SDS011;2922;53.482;10.006;2023-06-26T02:46:59;11.93;;;4.30;;
5791;SDS011;2922;53.482;10.006;2023-06-26T02:49:24;9.67;;;4.73;;
5791;SDS011;2922;53.482;10.006;2023-06-26T02:51:50;6.73;;;3.63;;
5791;SDS011;2922;53.482;10.006;2023-06-26T02:54:15;7.90;;;4.63;;
5791;SDS011;2922;53.482;10.006;2023-06-26T02:56:41;9.40;;;4.67;;
5791;SDS011;2922;53.482;10.006;2023-06-26T02:59:07;9.33;;;4.60;;
5791;SDS011;2922;53.482;10.006;2023-06-26T03:01:32;8.87;;;4.80;;
5791;SDS011;2922;53.482;10.006;2023-06-26T03:03:58;15.10;;;5.10;;
5791;SDS011;2922;53.482;10.006;2023-06-26T03:06:25;8.90;;;4.33;;
5791;SDS011;2922;53.482;10.006;2023-06-26T03:08:52;7.13;;;3.60;;
5791;SDS011;2922;53.482;10.006;2023-06-26T03:11:18;5.97;;;2.80;;
5791;SDS011;2922;53.482;10.006;2023-06-26T03:13:44;9.97;;;4.67;;
5791;SDS011;2922;53.482;10.006;2023-06-26T03:16:10;8.90;;;3.90;;
5791;SDS011;2922;53.482;10.006;2023-06-26T03:18:36;8.57;;;4.87;;
5791;SDS011;2922;53.482;10.006;2023-06-26T03:21:01;6.83;;;4.23;;
5791;SDS011;2922;53.482;10.006;2023-06-26T03:23:27;9.17;;;4.80;;
5791;SDS011;2922;53.482;10.006;2023-06-26T03:25:53;11.87;;;3.70;;
5791;SDS011;2922;53.482;10.006;2023-06-26T03:28:18;10.43;;;5.07;;
5791;SDS011;2922;53.482;10.006;2023-06-26T03:30:44;9.97;;;5.03;;
5791;SDS011;2922;53.482;10.006;2023-06-26T03:33:10;8.90;;;4.77;;
5791;SDS011;2922;53.482;10.006;2023-06-26T03:35:35;12.57;;;4.83;;
5791;SDS011;2922;53.482;10.006;2023-06-26T03:38:01;10.00;;;4.40;;
5791;SDS011;2922;53.482;10.006;2023-06-26T03:40:28;10.60;;;4.00;;
5791;SDS011;2922;53.482;10.006;2023-06-26T03:42:54;9.80;;;4.27;;
5791;SDS011;2922;53.482;10.006;2023-06-26T03:45:19;8.63;;;3.40;;
5791;SDS011;2922;53.482;10.006;2023-06-26T03:47:45;6.73;;;3.70;;
5791;SDS011;2922;53.482;10.006;2023-06-26T03:50:13;10.37;;;4.50;;
5791;SDS011;2922;53.482;10.006;2023-06-26T03:52:39;7.00;;;3.80;;
5791;SDS011;2922;53.482;10.006;2023-06-26T03:55:05;12.57;;;4.10;;
5791;SDS011;2922;53.482;10.006;2023-06-26T03:57:31;9.00;;;3.80;;
5791;SDS011;2922;53.482;10.006;2023-06-26T03:59:56;10.67;;;4.00;;
5791;SDS011;2922;53.482;10.006;2023-06-26T04:02:22;7.90;;;3.97;;
5791;SDS011;2922;53.482;10.006;2023-06-26T04:04:48;9.60;;;4.30;;
5791;SDS011;2922;53.482;10.006;2023-06-26T04:07:13;9.63;;;4.50;;
5791;SDS011;2922;53.482;10.006;2023-06-26T04:09:39;11.60;;;3.60;;
5791;SDS011;2922;53.482;10.006;2023-06-26T04:12:05;5.17;;;2.87;;
5791;SDS011;2922;53.482;10.006;2023-06-26T04:14:31;7.00;;;3.40;;
5791;SDS011;2922;53.482;10.006;2023-06-26T04:16:57;7.33;;;3.73;;
5791;SDS011;2922;53.482;10.006;2023-06-26T04:19:26;6.23;;;3.73;;
5791;SDS011;2922;53.482;10.006;2023-06-26T04:21:52;6.53;;;4.00;;
5791;SDS011;2922;53.482;10.006;2023-06-26T04:24:17;8.80;;;4.17;;
5791;SDS011;2922;53.482;10.006;2023-06-26T04:26:43;8.50;;;4.27;;
5791;SDS011;2922;53.482;10.006;2023-06-26T04:29:10;6.60;;;3.17;;
5791;SDS011;2922;53.482;10.006;2023-06-26T04:31:36;7.00;;;4.00;;
5791;SDS011;2922;53.482;10.006;2023-06-26T04:34:01;7.73;;;3.37;;
5791;SDS011;2922;53.482;10.006;2023-06-26T04:36:27;9.10;;;4.17;;
5791;SDS011;2922;53.482;10.006;2023-06-26T04:38:56;10.90;;;5.27;;
5791;SDS011;2922;53.482;10.006;2023-06-26T04:41:23;8.20;;;4.57;;
5791;SDS011;2922;53.482;10.006;2023-06-26T04:43:50;10.10;;;4.07;;
5791;SDS011;2922;53.482;10.006;2023-06-26T04:46:15;11.53;;;4.30;;
5791;SDS011;2922;53.482;10.006;2023-06-26T04:48:41;9.30;;;4.73;;
5791;SDS011;2922;53.482;10.006;2023-06-26T04:51:07;9.97;;;5.20;;
5791;SDS011;2922;53.482;10.006;2023-06-26T04:53:33;8.23;;;3.70;;
5791;SDS011;2922;53.482;10.006;2023-06-26T04:55:58;10.83;;;5.00;;
5791;SDS011;2922;53.482;10.006;2023-06-26T04:58:24;7.23;;;4.20;;
5791;SDS011;2922;53.482;10.006;2023-06-26T05:00:49;8.43;;;3.80;;
5791;SDS011;2922;53.482;10.006;2023-06-26T05:03:16;7.83;;;4.30;;
5791;SDS011;2922;53.482;10.006;2023-06-26T05:05:42;6.97;;;3.93;;
5791;SDS011;2922;53.482;10.006;2023-06-26T05:08:21;9.43;;;3.93;;
5791;SDS011;2922;53.482;10.006;2023-06-26T05:10:47;9.30;;;3.50;;
5791;SDS011;2922;53.482;10.006;2023-06-26T05:13:13;6.87;;;3.90;;
5791;SDS011;2922;53.482;10.006;2023-06-26T05:15:44;22.27;;;4.33;;
5791;SDS011;2922;53.482;10.006;2023-06-26T05:18:10;6.10;;;3.33;;
5791;SDS011;2922;53.482;10.006;2023-06-26T05:20:36;8.53;;;3.20;;
5791;SDS011;2922;53.482;10.006;2023-06-26T05:23:02;8.35;;;4.10;;
5791;SDS011;2922;53.482;10.006;2023-06-26T05:25:31;6.23;;;3.67;;
5791;SDS011;2922;53.482;10.006;2023-06-26T05:27:59;8.07;;;3.80;;
5791;SDS011;2922;53.482;10.006;2023-06-26T05:30:25;10.43;;;3.93;;
5791;SDS011;2922;53.482;10.006;2023-06-26T05:32:52;12.63;;;5.33;;
5791;SDS011;2922;53.482;10.006;2023-06-26T05:35:21;10.60;;;4.03;;
5791;SDS011;2922;53.482;10.006;2023-06-26T05:37:50;7.10;;;2.80;;
5791;SDS011;2922;53.482;10.006;2023-06-26T05:40:17;9.83;;;3.83;;
5791;SDS011;2922;53.482;10.006;2023-06-26T05:42:43;7.27;;;3.80;;
5791;SDS011;2922;53.482;10.006;2023-06-26T05:45:09;6.73;;;3.80;;
5791;SDS011;2922;53.482;10.006;2023-06-26T05:47:36;12.50;;;4.20;;
5791;SDS011;2922;53.482;10.006;2023-06-26T05:50:02;7.60;;;3.83;;
5791;SDS011;2922;53.482;10.006;2023-06-26T05:52:28;5.10;;;3.20;;
5791;SDS011;2922;53.482;10.006;2023-06-26T05:54:55;7.60;;;3.53;;
5791;SDS011;2922;53.482;10.006;2023-06-26T05:57:23;4.90;;;3.57;;
5791;SDS011;2922;53.482;10.006;2023-06-26T05:59:50;6.50;;;3.33;;
5791;SDS011;2922;53.482;10.006;2023-06-26T06:02:16;4.70;;;3.40;;
5791;SDS011;2922;53.482;10.006;2023-06-26T06:04:42;13.80;;;4.73;;
5791;SDS011;2922;53.482;10.006;2023-06-26T06:07:07;6.83;;;4.00;;
5791;SDS011;2922;53.482;10.006;2023-06-26T06:09:33;7.70;;;3.50;;
5791;SDS011;2922;53.482;10.006;2023-06-26T06:11:58;10.60;;;4.13;;
5791;SDS011;2922;53.482;10.006;2023-06-26T06:14:25;7.37;;;3.60;;
5791;SDS011;2922;53.482;10.006;2023-06-26T06:16:50;12.13;;;3.50;;
5791;SDS011;2922;53.482;10.006;2023-06-26T06:19:16;7.20;;;3.53;;
5791;SDS011;2922;53.482;10.006;2023-06-26T06:21:41;4.70;;;3.27;;
5791;SDS011;2922;53.482;10.006;2023-06-26T06:24:08;5.47;;;3.53;;
5791;SDS011;2922;53.482;10.006;2023-06-26T06:26:34;7.13;;;3.40;;
5791;SDS011;2922;53.482;10.006;2023-06-26T06:29:00;9.10;;;4.00;;
5791;SDS011;2922;53.482;10.006;2023-06-26T06:31:26;4.97;;;3.00;;
5791;SDS011;2922;53.482;10.006;2023-06-26T06:33:53;5.73;;;3.23;;
5791;SDS011;2922;53.482;10.006;2023-06-26T06:36:19;5.43;;;3.50;;
5791;SDS011;2922;53.482;10.006;2023-06-26T06:38:45;11.17;;;4.13;;
5791;SDS011;2922;53.482;10.006;2023-06-26T06:41:10;9.63;;;4.00;;
5791;SDS011;2922;53.482;10.006;2023-06-26T06:43:37;6.00;;;3.27;;
5791;SDS011;2922;53.482;10.006;2023-06-26T06:46:03;15.80;;;3.13;;
5791;SDS011;2922;53.482;10.006;2023-06-26T06:48:29;6.73;;;3.90;;
5791;SDS011;2922;53.482;10.006;2023-06-26T06:50:54;3.90;;;2.67;;
5791;SDS011;2922;53.482;10.006;2023-06-26T06:53:20;6.13;;;3.30;;
5791;SDS011;2922;53.482;10.006;2023-06-26T06:55:46;6.93;;;3.57;;
5791;SDS011;2922;53.482;10.006;2023-06-26T06:58:11;9.20;;;3.20;;
5791;SDS011;2922;53.482;10.006;2023-06-26T07:00:37;9.13;;;3.63;;
5791;SDS011;2922;53.482;10.006;2023-06-26T07:03:02;13.53;;;3.40;;
5791;SDS011;2922;53.482;10.006;2023-06-26T07:05:28;6.50;;;3.17;;
5791;SDS011;2922;53.482;10.006;2023-06-26T07:07:54;8.93;;;3.63;;
5791;SDS011;2922;53.482;10.006;2023-06-26T07:10:20;8.63;;;3.90;;
5791;SDS011;2922;53.482;10.006;2023-06-26T07:12:46;8.00;;;2.83;;
5791;SDS011;2922;53.482;10.006;2023-06-26T07:15:11;4.33;;;2.90;;
5791;SDS011;2922;53.482;10.006;2023-06-26T07:17:37;8.67;;;3.77;;
5791;SDS011;2922;53.482;10.006;2023-06-26T07:20:04;5.83;;;3.20;;
5791;SDS011;2922;53.482;10.006;2023-06-26T07:22:33;5.47;;;2.70;;
5791;SDS011;2922;53.482;10.006;2023-06-26T07:24:59;6.13;;;3.00;;
5791;SDS011;2922;53.482;10.006;2023-06-26T07:27:25;7.07;;;4.10;;
5791;SDS011;2922;53.482;10.006;2023-06-26T07:29:51;7.07;;;2.53;;
5791;SDS011;2922;53.482;10.006;2023-06-26T07:32:16;5.47;;;2.70;;
5791;SDS011;2922;53.482;10.006;2023-06-26T07:34:42;6.30;;;3.20;;
5791;SDS011;2922;53.482;10.006;2023-06-26T07:37:07;6.93;;;3.47;;
5791;SDS011;2922;53.482;10.006;2023-06-26T07:39:33;4.40;;;2.43;;
5791;SDS011;2922;53.482;10.006;2023-06-26T07:41:58;5.40;;;3.57;;
5791;SDS011;2922;53.482;10.006;2023-06-26T07:44:24;4.97;;;2.20;;
5791;SDS011;2922;53.482;10.006;2023-06-26T07:46:50;4.10;;;2.27;;
5791;SDS011;2922;53.482;10.006;2023-06-26T07:49:16;4.53;;;2.40;;
5791;SDS011;2922;53.482;10.006;2023-06-26T07:51:41;6.67;;;3.50;;
5791;SDS011;2922;53.482;10.006;2023-06-26T07:54:07;6.50;;;3.40;;
5791;SDS011;2922;53.482;10.006;2023-06-26T07:59:24;5.60;;;3.00;;
5791;SDS011;2922;53.482;10.006;2023-06-26T08:01:51;6.50;;;2.37;;
5791;SDS011;2922;53.482;10.006;2023-06-26T08:04:19;7.83;;;2.93;;
5791;SDS011;2922;53.482;10.006;2023-06-26T08:06:49;7.50;;;2.80;;
5791;SDS011;2922;53.482;10.006;2023-06-26T08:09:17;5.73;;;3.23;;
5791;SDS011;2922;53.482;10.006;2023-06-26T08:11:44;7.17;;;3.10;;
5791;SDS011;2922;53.482;10.006;2023-06-26T08:14:09;4.40;;;2.60;;
5791;SDS011;2922;53.482;10.006;2023-06-26T08:16:36;5.40;;;2.70;;
5791;SDS011;2922;53.482;10.006;2023-06-26T08:19:05;4.10;;;2.20;;
5791;SDS011;2922;53.482;10.006;2023-06-26T08:21:31;4.57;;;3.10;;
5791;SDS011;2922;53.482;10.006;2023-06-26T08:23:57;4.93;;;2.90;;
5791;SDS011;2922;53.482;10.006;2023-06-26T08:26:23;6.10;;;3.17;;
5791;SDS011;2922;53.482;10.006;2023-06-26T08:28:48;4.40;;;2.50;;
5791;SDS011;2922;53.482;10.006;2023-06-26T08:31:14;5.30;;;2.70;;
5791;SDS011;2922;53.482;10.006;2023-06-26T08:33:39;7.17;;;3.30;;
5791;SDS011;2922;53.482;10.006;2023-06-26T08:36:05;7.43;;;3.80;;
5791;SDS011;2922;53.482;10.006;2023-06-26T08:38:30;9.10;;;3.40;;
5791;SDS011;2922;53.482;10.006;2023-06-26T08:40:56;8.37;;;3.50;;
5791;SDS011;2922;53.482;10.006;2023-06-26T08:43:21;9.33;;;3.70;;
5791;SDS011;2922;53.482;10.006;2023-06-26T08:45:47;8.13;;;3.10;;
5791;SDS011;2922;53.482;10.006;2023-06-26T08:48:16;12.17;;;3.23;;
5791;SDS011;2922;53.482;10.006;2023-06-26T08:50:43;5.40;;;2.57;;
5791;SDS011;2922;53.482;10.006;2023-06-26T08:56:05;7.57;;;3.53;;
5791;SDS011;2922;53.482;10.006;2023-06-26T08:58:33;10.35;;;3.30;;
5791;SDS011;2922;53.482;10.006;2023-06-26T09:01:01;5.90;;;3.40;;
5791;SDS011;2922;53.482;10.006;2023-06-26T09:03:27;5.83;;;3.13;;
5791;SDS011;2922;53.482;10.006;2023-06-26T09:05:53;6.80;;;3.50;;
5791;SDS011;2922;53.482;10.006;2023-06-26T09:08:19;10.00;;;3.50;;
5791;SDS011;2922;53.482;10.006;2023-06-26T09:10:44;7.63;;;3.00;;
5791;SDS011;2922;53.482;10.006;2023-06-26T09:13:10;11.80;;;3.50;;
5791;SDS011;2922;53.482;10.006;2023-06-26T09:15:39;9.47;;;4.00;;
5791;SDS011;2922;53.482;10.006;2023-06-26T09:18:07;8.90;;;4.30;;
5791;SDS011;2922;53.482;10.006;2023-06-26T09:20:33;10.10;;;4.53;;
5791;SDS011;2922;53.482;10.006;2023-06-26T09:22:59;7.97;;;4.00;;
5791;SDS011;2922;53.482;10.006;2023-06-26T09:25:25;8.70;;;3.97;;
5791;SDS011;2922;53.482;10.006;2023-06-26T09:27:51;9.07;;;4.37;;
5791;SDS011;2922;53.482;10.006;2023-06-26T09:30:18;10.90;;;3.87;;
5791;SDS011;2922;53.482;10.006;2023-06-26T09:32:44;10.20;;;4.27;;
5791;SDS011;2922;53.482;10.006;2023-06-26T09:35:10;8.87;;;3.80;;
5791;SDS011;2922;53.482;10.006;2023-06-26T09:37:37;10.03;;;5.03;;
5791;SDS011;2922;53.482;10.006;2023-06-26T09:40:03;11.60;;;5.53;;
5791;SDS011;2922;53.482;10.006;2023-06-26T09:42:30;9.07;;;4.47;;
5791;SDS011;2922;53.482;10.006;2023-06-26T09:44:56;18.33;;;4.80;;
5791;SDS011;2922;53.482;10.006;2023-06-26T09:47:22;6.90;;;3.70;;
5791;SDS011;2922;53.482;10.006;2023-06-26T09:49:48;7.30;;;3.63;;
5791;SDS011;2922;53.482;10.006;2023-06-26T09:52:15;15.70;;;5.60;;
5791;SDS011;2922;53.482;10.006;2023-06-26T09:54:41;11.03;;;4.93;;
5791;SDS011;2922;53.482;10.006;2023-06-26T09:57:11;6.77;;;3.97;;
5791;SDS011;2922;53.482;10.006;2023-06-26T09:59:38;7.93;;;3.93;;
5791;SDS011;2922;53.482;10.006;2023-06-26T10:02:05;7.27;;;3.63;;
5791;SDS011;2922;53.482;10.006;2023-06-26T10:04:31;7.57;;;3.70;;
5791;SDS011;2922;53.482;10.006;2023-06-26T10:06:58;6.00;;;3.43;;
5791;SDS011;2922;53.482;10.006;2023-06-26T10:09:26;12.00;;;4.73;;
5791;SDS011;2922;53.482;10.006;2023-06-26T10:11:57;10.60;;;4.77;;
5791;SDS011;2922;53.482;10.006;2023-06-26T10:14:27;11.93;;;6.50;;
5791;SDS011;2922;53.482;10.006;2023-06-26T10:16:59;12.10;;;4.90;;
5791;SDS011;2922;53.482;10.006;2023-06-26T10:19:28;9.00;;;4.23;;
5791;SDS011;2922;53.482;10.006;2023-06-26T10:21:57;12.10;;;5.50;;
5791;SDS011;2922;53.482;10.006;2023-06-26T10:24:25;7.93;;;4.20;;
5791;SDS011;2922;53.482;10.006;2023-06-26T10:26:55;9.03;;;3.80;;
5791;SDS011;2922;53.482;10.006;2023-06-26T10:29:24;5.97;;;3.17;;
5791;SDS011;2922;53.482;10.006;2023-06-26T10:31:52;6.13;;;2.57;;
5791;SDS011;2922;53.482;10.006;2023-06-26T10:34:20;10.80;;;2.50;;
5791;SDS011;2922;53.482;10.006;2023-06-26T10:36:46;9.70;;;3.70;;
5791;SDS011;2922;53.482;10.006;2023-06-26T10:39:13;4.60;;;2.10;;
5791;SDS011;2922;53.482;10.006;2023-06-26T10:41:39;5.27;;;2.60;;
5791;SDS011;2922;53.482;10.006;2023-06-26T10:44:09;14.10;;;4.03;;
5791;SDS011;2922;53.482;10.006;2023-06-26T10:49:15;7.37;;;3.23;;
5791;SDS011;2922;53.482;10.006;2023-06-26T10:51:49;6.67;;;3.63;;
5791;SDS011;2922;53.482;10.006;2023-06-26T10:54:16;9.07;;;3.10;;
5791;SDS011;2922;53.482;10.006;2023-06-26T10:56:45;4.57;;;3.23;;
5791;SDS011;2922;53.482;10.006;2023-06-26T11:01:53;4.90;;;2.90;;
5791;SDS011;2922;53.482;10.006;2023-06-26T11:09:56;6.70;;;3.67;;
5791;SDS011;2922;53.482;10.006;2023-06-26T11:15:09;9.43;;;3.93;;
5791;SDS011;2922;53.482;10.006;2023-06-26T11:17:39;7.97;;;3.30;;
5791;SDS011;2922;53.482;10.006;2023-06-26T11:20:12;6.30;;;3.00;;
5791;SDS011;2922;53.482;10.006;2023-06-26T11:22:42;5.77;;;2.57;;
5791;SDS011;2922;53.482;10.006;2023-06-26T11:25:08;6.20;;;2.50;;
5791;SDS011;2922;53.482;10.006;2023-06-26T11:30:04;7.30;;;2.57;;
5791;SDS011;2922;53.482;10.006;2023-06-26T11:32:47;6.77;;;2.57;;
5791;SDS011;2922;53.482;10.006;2023-06-26T11:35:12;8.03;;;3.47;;
5791;SDS011;2922;53.482;10.006;2023-06-26T11:37:38;7.50;;;2.13;;
5791;SDS011;2922;53.482;10.006;2023-06-26T11:40:17;4.03;;;2.93;;
5791;SDS011;2922;53.482;10.006;2023-06-26T11:42:44;3.77;;;2.47;;
5791;SDS011;2922;53.482;10.006;2023-06-26T11:45:10;4.37;;;1.30;;
5791;SDS011;2922;53.482;10.006;2023-06-26T11:47:35;1.53;;;1.17;;
5791;SDS011;2922;53.482;10.006;2023-06-26T11:50:04;10.83;;;2.03;;
5791;SDS011;2922;53.482;10.006;2023-06-26T11:52:32;5.07;;;1.57;;
5791;SDS011;2922;53.482;10.006;2023-06-26T11:54:58;2.13;;;1.00;;
5791;SDS011;2922;53.482;10.006;2023-06-26T11:57:23;5.63;;;1.67;;
5791;SDS011;2922;53.482;10.006;2023-06-26T11:59:49;3.60;;;1.57;;
5791;SDS011;2922;53.482;10.006;2023-06-26T12:02:16;2.63;;;1.33;;
5791;SDS011;2922;53.482;10.006;2023-06-26T12:04:43;10.97;;;2.87;;
5791;SDS011;2922;53.482;10.006;2023-06-26T12:07:09;2.03;;;1.40;;
5791;SDS011;2922;53.482;10.006;2023-06-26T12:09:42;1.73;;;1.00;;
5791;SDS011;2922;53.482;10.006;2023-06-26T12:12:10;1.20;;;0.80;;
5791;SDS011;2922;53.482;10.006;2023-06-26T12:14:37;1.00;;;0.80;;
5791;SDS011;2922;53.482;10.006;2023-06-26T12:17:12;1.50;;;0.83;;
5791;SDS011;2922;53.482;10.006;2023-06-26T12:19:39;1.70;;;0.83;;
5791;SDS011;2922;53.482;10.006;2023-06-26T12:22:08;4.03;;;1.43;;
5791;SDS011;2922;53.482;10.006;2023-06-26T12:24:38;2.93;;;1.20;;
5791;SDS011;2922;53.482;10.006;2023-06-26T12:27:11;4.80;;;1.20;;
5791;SDS011;2922;53.482;10.006;2023-06-26T12:29:39;12.50;;;1.63;;
5791;SDS011;2922;53.482;10.006;2023-06-26T12:32:09;1.97;;;1.00;;
5791;SDS011;2922;53.482;10.006;2023-06-26T12:34:36;2.10;;;1.10;;
5791;SDS011;2922;53.482;10.006;2023-06-26T12:37:09;9.80;;;1.43;;
5791;SDS011;2922;53.482;10.006;2023-06-26T12:39:48;2.13;;;1.13;;
5791;SDS011;2922;53.482;10.006;2023-06-26T12:42:19;3.43;;;0.90;;
5791;SDS011;2922;53.482;10.006;2023-06-26T12:44:52;4.47;;;1.63;;
5791;SDS011;2922;53.482;10.006;2023-06-26T12:47:24;4.20;;;1.33;;
5791;SDS011;2922;53.482;10.006;2023-06-26T12:49:51;1.57;;;1.20;;
5791;SDS011;2922;53.482;10.006;2023-06-26T12:52:17;6.10;;;1.67;;
5791;SDS011;2922;53.482;10.006;2023-06-26T12:54:44;2.43;;;1.33;;
5791;SDS011;2922;53.482;10.006;2023-06-26T12:57:12;2.90;;;1.27;;
5791;SDS011;2922;53.482;10.006;2023-06-26T12:59:39;1.63;;;1.00;;
5791;SDS011;2922;53.482;10.006;2023-06-26T13:02:05;1.63;;;0.90;;
5791;SDS011;2922;53.482;10.006;2023-06-26T13:04:31;2.20;;;1.20;;
5791;SDS011;2922;53.482;10.006;2023-06-26T13:06:58;2.20;;;1.00;;
5791;SDS011;2922;53.482;10.006;2023-06-26T13:09:23;2.83;;;1.73;;
5791;SDS011;2922;53.482;10.006;2023-06-26T13:11:50;3.00;;;1.00;;
5791;SDS011;2922;53.482;10.006;2023-06-26T13:14:16;1.00;;;0.73;;
5791;SDS011;2922;53.482;10.006;2023-06-26T13:16:42;1.60;;;0.80;;
5791;SDS011;2922;53.482;10.006;2023-06-26T13:19:07;0.90;;;0.70;;
5791;SDS011;2922;53.482;10.006;2023-06-26T13:21:33;1.00;;;0.87;;
5791;SDS011;2922;53.482;10.006;2023-06-26T13:23:59;3.43;;;1.53;;
5791;SDS011;2922;53.482;10.006;2023-06-26T13:26:26;4.23;;;0.80;;
5791;SDS011;2922;53.482;10.006;2023-06-26T13:28:53;9.37;;;1.30;;
5791;SDS011;2922;53.482;10.006;2023-06-26T13:31:19;1.10;;;0.70;;
5791;SDS011;2922;53.482;10.006;2023-06-26T13:33:46;3.13;;;1.77;;
5791;SDS011;2922;53.482;10.006;2023-06-26T13:36:14;1.10;;;0.80;;
5791;SDS011;2922;53.482;10.006;2023-06-26T13:38:43;1.57;;;1.03;;
5791;SDS011;2922;53.482;10.006;2023-06-26T13:41:08;3.00;;;1.20;;
5791;SDS011;2922;53.482;10.006;2023-06-26T13:43:34;3.80;;;1.37;;
5791;SDS011;2922;53.482;10.006;2023-06-26T13:46:00;1.47;;;0.60;;
5791;SDS011;2922;53.482;10.006;2023-06-26T13:48:25;0.83;;;0.57;;
5791;SDS011;2922;53.482;10.006;2023-06-26T13:50:51;3.55;;;1.10;;
5791;SDS011;2922;53.482;10.006;2023-06-26T13:53:17;2.30;;;1.00;;
5791;SDS011;2922;53.482;10.006;2023-06-26T13:55:43;15.43;;;1.17;;
5791;SDS011;2922;53.482;10.006;2023-06-26T13:58:09;1.77;;;1.43;;
5791;SDS011;2922;53.482;10.006;2023-06-26T14:00:36;3.80;;;0.70;;
5791;SDS011;2922;53.482;10.006;2023-06-26T14:03:02;4.30;;;1.50;;
5791;SDS011;2922;53.482;10.006;2023-06-26T14:05:29;1.63;;;0.90;;
5791;SDS011;2922;53.482;10.006;2023-06-26T14:07:55;1.77;;;0.80;;
5791;SDS011;2922;53.482;10.006;2023-06-26T14:10:21;7.70;;;1.10;;
5791;SDS011;2922;53.482;10.006;2023-06-26T14:12:47;2.03;;;1.10;;
5791;SDS011;2922;53.482;10.006;2023-06-26T14:15:13;2.30;;;1.20;;
5791;SDS011;2922;53.482;10.006;2023-06-26T14:17:39;1.63;;;0.70;;
5791;SDS011;2922;53.482;10.006;2023-06-26T14:20:05;5.13;;;1.00;;
5791;SDS011;2922;53.482;10.006;2023-06-26T14:22:35;1.30;;;0.90;;
5791;SDS011;2922;53.482;10.006;2023-06-26T14:25:01;2.60;;;0.70;;
5791;SDS011;2922;53.482;10.006;2023-06-26T14:27:27;1.20;;;0.70;;
5791;SDS011;2922;53.482;10.006;2023-06-26T14:29:53;3.43;;;0.93;;
5791;SDS011;2922;53.482;10.006;2023-06-26T14:32:18;1.00;;;0.70;;
5791;SDS011;2922;53.482;10.006;2023-06-26T14:34:44;2.07;;;0.70;;
5791;SDS011;2922;53.482;10.006;2023-06-26T14:37:09;3.30;;;1.40;;
5791;SDS011;2922;53.482;10.006;2023-06-26T14:39:35;4.53;;;0.87;;
5791;SDS011;2922;53.482;10.006;2023-06-26T14:42:03;1.35;;;0.85;;
5791;SDS011;2922;53.482;10.006;2023-06-26T14:44:29;1.23;;;0.90;;
5791;SDS011;2922;53.482;10.006;2023-06-26T14:46:55;3.07;;;0.77;;
5791;SDS011;2922;53.482;10.006;2023-06-26T14:49:20;5.50;;;0.90;;
5791;SDS011;2922;53.482;10.006;2023-06-26T14:51:46;1.70;;;1.37;;
5791;SDS011;2922;53.482;10.006;2023-06-26T14:54:11;6.73;;;0.70;;
5791;SDS011;2922;53.482;10.006;2023-06-26T14:56:37;1.10;;;0.67;;
5791;SDS011;2922;53.482;10.006;2023-06-26T14:59:03;1.63;;;1.00;;
5791;SDS011;2922;53.482;10.006;2023-06-26T15:01:28;3.43;;;1.13;;
5791;SDS011;2922;53.482;10.006;2023-06-26T15:03:55;0.90;;;0.60;;
5791;SDS011;2922;53.482;10.006;2023-06-26T15:06:20;4.07;;;0.80;;
5791;SDS011;2922;53.482;10.006;2023-06-26T15:08:46;2.13;;;0.87;;
5791;SDS011;2922;53.482;10.006;2023-06-26T15:11:12;0.90;;;0.70;;
5791;SDS011;2922;53.482;10.006;2023-06-26T15:13:37;9.27;;;1.50;;
5791;SDS011;2922;53.482;10.006;2023-06-26T15:16:03;1.30;;;0.80;;
5791;SDS011;2922;53.482;10.006;2023-06-26T15:18:28;2.30;;;1.43;;
5791;SDS011;2922;53.482;10.006;2023-06-26T15:20:54;2.00;;;1.33;;
5791;SDS011;2922;53.482;10.006;2023-06-26T15:23:19;0.90;;;0.60;;